Friendsville, Tennessee
Current Conditions -  °F | °C
As of 3:53 PM on Thursday 27 Nov 2014 (Local Time) from KTYS Reporting Station
Broken Clouds Broken Clouds  
Wind Chill: 29°   Ceiling: 4800
Heat Index: 37°   Visibility: 10mi
Dew Point: 27°   Wind: 13mph
Humidity: 67%   Direction: 280°W
Pressure: 30.31"   Gusts: NA
Location:  35.76°N, 84.14°W
Report Text: KTYS 272053Z 28011KT 10SM SCT036 BKN048 BKN055 03/M03 A3031 RMK AO2 SLP268 T00281028 53012
Loading
Personal Weather Stations






























Interactive Weather Map New forecast layout! Learn more

10-Day Weather Forecast

Advertisements
Track Severe Weather on mobile